Time;durP1;ratioP1;P1;durP2;ratioP2;P2;SDS_P1;SDS_P2;PMS_P1;PMS_P2;Temp;Humidity;BMP_temperature;BMP_pressure;BME280_temperature;BME280_humidity;BME280_pressure;Samples;Min_cycle;Max_cycle;Signal;HPM_P1;HPM_P2
2023/04/05 00:00:19;;;;;;;;;;;;;;;;;;1033092;28;2515;-59
2023/04/05 00:01:11;;;;;;;;;;;;;;;;;;1031864;28;4062;-55
2023/04/05 00:01:41;;;;;;;;;;;;;;;;;;1033875;28;4101;-60
2023/04/05 00:02:12;;;;;;;;;;;;;;;;;;1030424;28;2836;-56
2023/04/05 00:02:43;;;;;;;;;;;;;;;;;;1034044;28;3760;-57
2023/04/05 00:03:17;;;;;;;;;;;;;;;;;;1035275;28;1590;-56
2023/04/05 00:03:47;;;;;;;;;;;;;;;;;;1033851;28;3798;-55
2023/04/05 00:04:22;;;;;;;;;;;;;;;;;;1033156;28;2806;-57
2023/04/05 00:04:56;;;;;;;;;;;;;;;;;;1032911;28;3739;-56
2023/04/05 00:05:29;;;;;;;;;;;;;;;;;;1033776;28;3993;-56
2023/04/05 00:06:01;;;;;;;;;;;;;;;;;;1030278;28;2511;-57
2023/04/05 00:06:32;;;;;;;;;;;;;;;;;;1029405;28;4059;-59
2023/04/05 00:07:07;;;;;;;;;;;;;;;;;;1031956;28;1897;-58
2023/04/05 00:07:37;;;;;;;;;;;;;;;;;;1034490;28;3760;-53
2023/04/05 00:08:12;;;;;;;;;;;;;;;;;;1035283;28;1579;-54
2023/04/05 00:08:43;;;;;;;;;;;;;;;;;;1037584;28;3923;-55
2023/04/05 00:09:13;;;;;;;;;;;;;;;;;;1039030;28;2795;-55
2023/04/05 00:09:43;;;;;;;;;;;;;;;;;;1037464;28;3776;-56
2023/04/05 00:10:14;;;;;;;;;;;;;;;;;;1039407;28;2674;-54
2023/04/05 00:10:44;;;;;;;;;;;;;;;;;;1037053;28;3736;-57
2023/04/05 00:11:15;;;;;;;;;;;;;;;;;;1039926;28;1759;-54
2023/04/05 00:11:46;;;;;;;;;;;;;;;;;;1036543;28;3847;-58
2023/04/05 00:12:16;;;;;;;;;;;;;;;;;;1040320;28;1685;-56
2023/04/05 00:12:47;;;;;;;;;;;;;;;;;;1039679;28;3756;-56
2023/04/05 00:13:17;;;;;;;;;;;;;;;;;;1040346;28;1765;-55
2023/04/05 00:13:48;;;;;;;;;;;;;;;;;;1038015;28;3948;-57
2023/04/05 00:14:18;;;;;;;;;;;;;;;;;;1038658;28;2742;-59
2023/04/05 00:14:48;;;;;;;;;;;;;;;;;;1039658;28;3962;-59
2023/04/05 00:15:19;;;;;;;;;;;;;;;;;;1035080;28;3433;-58
2023/04/05 00:15:49;;;;;;;;;;;;;;;;;;1039100;28;3798;-55
2023/04/05 00:16:19;;;;;;;;;;;;;;;;;;1036431;28;3983;-58
2023/04/05 00:16:50;;;;;;;;;;;;;;;;;;1041387;28;2217;-57
2023/04/05 00:17:21;;;;;;;;;;;;;;;;;;1037662;28;4003;-56
2023/04/05 00:17:52;;;;;;;;;;;;;;;;;;1040399;28;1822;-57
2023/04/05 00:18:24;;;;;;;;;;;;;;;;;;1038186;28;3895;-57
2023/04/05 00:18:55;;;;;;;;;;;;;;;;;;1039948;28;1878;-56
2023/04/05 00:19:25;;;;;;;;;;;;;;;;;;1036246;28;4053;-58
2023/04/05 00:19:56;;;;;;;;;;;;;;;;;;1038381;28;2798;-56
2023/04/05 00:20:28;;;;;;;;;;;;;;;;;;1038555;28;4199;-57
2023/04/05 00:20:58;;;;;;;;;;;;;;;;;;1039349;28;1665;-55
2023/04/05 00:21:28;;;;;;;;;;;;;;;;;;1034026;28;4094;-54
2023/04/05 00:21:59;;;;;;;;;;;;;;;;;;1033929;28;2792;-58
2023/04/05 00:22:30;;;;;;;;;;;;;;;;;;1032672;28;4287;-57
2023/04/05 00:23:01;;;;;;;;;;;;;;;;;;1036789;28;2698;-57
2023/04/05 00:23:37;;;;;;;;;;;;;;;;;;1035148;28;3759;-56
2023/04/05 00:24:08;;;;;;;;;;;;;;;;;;1035151;28;1904;-51
2023/04/05 00:24:42;;;;;;;;;;;;;;;;;;1036241;28;3956;-59
2023/04/05 00:25:12;;;;;;;;;;;;;;;;;;1035829;28;1710;-60
2023/04/05 00:25:43;;;;;;;;;;;;;;;;;;1032389;28;4040;-56
2023/04/05 00:26:13;;;;;;;;;;;;;;;;;;1031847;28;2822;-57
2023/04/05 00:26:44;;;;;;;;;;;;;;;;;;1035962;28;3955;-55
2023/04/05 00:27:14;;;;;;;;;;;;;;;;;;1034247;28;2705;-54
2023/04/05 00:27:45;;;;;;;;;;;;;;;;;;1034047;28;4052;-54
2023/04/05 00:28:15;;;;;;;;;;;;;;;;;;1033996;28;2031;-60
2023/04/05 00:28:48;;;;;;;;;;;;;;;;;;1031722;28;4347;-56
2023/04/05 00:29:19;;;;;;;;;;;;;;;;;;1034246;28;4099;-55
2023/04/05 00:29:49;;;;;;;;;;;;;;;;;;1032043;28;2758;-58
2023/04/05 00:30:20;;;;;;;;;;;;;;;;;;1028938;28;3954;-57
2023/04/05 00:30:51;;;;;;;;;;;;;;;;;;1034826;28;2321;-58
2023/04/05 00:31:21;;;;;;;;;;;;;;;;;;1032464;28;3908;-60
2023/04/05 00:31:51;;;;;;;;;;;;;;;;;;1034134;28;2842;-57
2023/04/05 00:32:22;;;;;;;;;;;;;;;;;;1033079;28;3996;-58
2023/04/05 00:32:52;;;;;;;;;;;;;;;;;;1035494;28;1781;-57
2023/04/05 00:33:22;;;;;;;;;;;;;;;;;;1034543;28;4018;-58
2023/04/05 00:33:52;;;;;;;;;;;;;;;;;;1033332;28;1932;-60
2023/04/05 00:34:23;;;;;;;;;;;;;;;;;;1034762;28;4372;-57
2023/04/05 00:34:53;;;;;;;;;;;;;;;;;;1036344;28;1685;-57
2023/04/05 00:35:26;;;;;;;;;;;;;;;;;;1033744;28;4259;-59
2023/04/05 00:35:56;;;;;;;;;;;;;;;;;;1034708;28;2343;-59
2023/04/05 00:36:26;;;;;;;;;;;;;;;;;;1034338;28;3819;-57
2023/04/05 00:36:57;;;;;;;;;;;;;;;;;;1035796;28;1901;-59
2023/04/05 00:37:27;;;;;;;;;;;;;;;;;;1032948;28;5378;-56
2023/04/05 00:37:57;;;;;;;;;;;;;;;;;;1033903;28;2262;-58
2023/04/05 00:38:27;;;;;;;;;;;;;;;;;;1035212;28;3802;-60
2023/04/05 00:38:58;;;;;;;;;;;;;;;;;;1035738;28;1673;-56
2023/04/05 00:39:28;;;;;;;;;;;;;;;;;;1034431;28;4044;-57
2023/04/05 00:39:58;;;;;;;;;;;;;;;;;;1032805;28;2452;-60
2023/04/05 00:40:29;;;;;;;;;;;;;;;;;;1033757;28;4101;-56
2023/04/05 00:40:59;;;;;;;;;;;;;;;;;;1035778;28;1948;-59
2023/04/05 00:41:29;;;;;;;;;;;;;;;;;;1035556;28;4075;-55
2023/04/05 00:42:01;;;;;;;;;;;;;;;;;;1034273;28;2325;-56
2023/04/05 00:42:31;;;;;;;;;;;;;;;;;;1033039;28;4153;-55
2023/04/05 00:43:02;;;;;;;;;;;;;;;;;;1035399;28;1898;-54
2023/04/05 00:43:32;;;;;;;;;;;;;;;;;;1033942;28;4160;-58
2023/04/05 00:44:03;;;;;;;;;;;;;;;;;;1035397;28;2302;-59
2023/04/05 00:44:33;;;;;;;;;;;;;;;;;;1033968;28;4098;-58
2023/04/05 00:45:04;;;;;;;;;;;;;;;;;;1034293;28;2770;-56
2023/04/05 00:45:34;;;;;;;;;;;;;;;;;;1034369;28;4112;-57
2023/04/05 00:46:05;;;;;;;;;;;;;;;;;;1034369;28;1877;-62
2023/04/05 00:46:36;;;;;;;;;;;;;;;;;;1033935;28;3889;-59
2023/04/05 00:47:06;;;;;;;;;;;;;;;;;;1035361;28;1724;-57
2023/04/05 00:47:37;;;;;;;;;;;;;;;;;;1033334;28;4046;-59
2023/04/05 00:48:07;;;;;;;;;;;;;;;;;;1034346;28;2249;-60
2023/04/05 00:48:38;;;;;;;;;;;;;;;;;;1033826;28;4095;-56
2023/04/05 00:49:09;;;;;;;;;;;;;;;;;;1034857;28;1812;-49
2023/04/05 00:49:39;;;;;;;;;;;;;;;;;;1033352;28;4135;-58
2023/04/05 00:50:11;;;;;;;;;;;;;;;;;;1032641;28;2509;-59
2023/04/05 00:50:42;;;;;;;;;;;;;;;;;;1034723;28;3865;-58
2023/04/05 00:51:12;;;;;;;;;;;;;;;;;;1035636;28;1626;-58
2023/04/05 00:51:43;;;;;;;;;;;;;;;;;;1035195;28;3960;-59
2023/04/05 00:52:14;;;;;;;;;;;;;;;;;;1033377;28;2439;-56
2023/04/05 00:52:44;;;;;;;;;;;;;;;;;;1030016;28;4034;-57
2023/04/05 00:53:16;;;;;;;;;;;;;;;;;;1031557;28;1726;-58
2023/04/05 00:53:47;;;;;;;;;;;;;;;;;;1034894;28;3723;-57
2023/04/05 00:54:17;;;;;;;;;;;;;;;;;;1033604;28;2249;-55
2023/04/05 00:54:48;;;;;;;;;;;;;;;;;;1032899;28;3951;-53
2023/04/05 00:55:19;;;;;;;;;;;;;;;;;;1031861;28;2827;-58
2023/04/05 00:55:50;;;;;;;;;;;;;;;;;;1038720;28;3802;-58
2023/04/05 00:56:21;;;;;;;;;;;;;;;;;;1038639;28;4059;-55
2023/04/05 00:56:54;;;;;;;;;;;;;;;;;;1037647;28;1842;-57
2023/04/05 00:57:25;;;;;;;;;;;;;;;;;;1037429;28;3910;-54
2023/04/05 00:57:55;;;;;;;;;;;;;;;;;;1038962;28;1824;-56
2023/04/05 00:58:26;;;;;;;;;;;;;;;;;;1036879;28;3787;-57
2023/04/05 00:58:56;;;;;;;;;;;;;;;;;;1039294;28;2043;-57
2023/04/05 00:59:30;;;;;;;;;;;;;;;;;;1039053;28;3821;-56
2023/04/05 01:00:05;;;;;;;;;;;;;;;;;;1040022;28;2803;-55
2023/04/05 01:00:37;;;;;;;;;;;;;;;;;;1037857;28;3942;-61
2023/04/05 01:01:26;;;;;;;;;;;;;;;;;;1037772;28;2398;-58
2023/04/05 01:02:01;;;;;;;;;;;;;;;;;;1036135;28;3992;-57
2023/04/05 01:02:33;;;;;;;;;;;;;;;;;;1035692;28;4064;-58
2023/04/05 01:03:03;;;;;;;;;;;;;;;;;;1040392;28;1843;-57
2023/04/05 01:03:37;;;;;;;;;;;;;;;;;;1038014;28;3808;-57
2023/04/05 01:04:10;;;;;;;;;;;;;;;;;;1038578;28;2164;-58
2023/04/05 01:04:48;;;;;;;;;;;;;;;;;;1038630;28;4113;-54
2023/04/05 01:05:34;;;;;;;;;;;;;;;;;;1037861;28;2792;-56
2023/04/05 01:06:11;;;;;;;;;;;;;;;;;;1038593;28;3820;-56
2023/04/05 01:07:00;;;;;;;;;;;;;;;;;;1037321;28;4953;-54
2023/04/05 01:07:37;;;;;;;;;;;;;;;;;;1039267;28;3940;-54
2023/04/05 01:08:12;;;;;;;;;;;;;;;;;;1037726;28;1761;-60
2023/04/05 01:08:45;;;;;;;;;;;;;;;;;;1037799;28;3705;-60
2023/04/05 01:09:28;;;;;;;;;;;;;;;;;;1039689;28;1932;-55
2023/04/05 01:09:59;;;;;;;;;;;;;;;;;;1036277;28;3788;-60
2023/04/05 01:10:34;;;;;;;;;;;;;;;;;;1039172;28;4315;-54
2023/04/05 01:11:05;;;;;;;;;;;;;;;;;;1039933;28;1725;-59
2023/04/05 01:11:37;;;;;;;;;;;;;;;;;;1038296;28;4467;-55
2023/04/05 01:12:08;;;;;;;;;;;;;;;;;;1037335;28;2251;-53
2023/04/05 01:12:39;;;;;;;;;;;;;;;;;;1039230;28;4243;-58
2023/04/05 01:13:09;;;;;;;;;;;;;;;;;;1039728;28;1507;-56
2023/04/05 01:13:40;;;;;;;;;;;;;;;;;;1037486;28;3854;-59
2023/04/05 01:14:10;;;;;;;;;;;;;;;;;;1036544;28;3231;-57
2023/04/05 01:14:49;;;;;;;;;;;;;;;;;;1036345;28;4416;-59
2023/04/05 01:15:19;;;;;;;;;;;;;;;;;;1037250;28;4057;-58
2023/04/05 01:15:50;;;;;;;;;;;;;;;;;;1039671;28;1714;-60
2023/04/05 01:16:20;;;;;;;;;;;;;;;;;;1039051;28;4052;-56
2023/04/05 01:16:56;;;;;;;;;;;;;;;;;;1039884;28;1905;-58
2023/04/05 01:17:28;;;;;;;;;;;;;;;;;;1038235;28;3855;-56
2023/04/05 01:18:00;;;;;;;;;;;;;;;;;;1038991;28;1998;-58
2023/04/05 01:18:31;;;;;;;;;;;;;;;;;;1038315;28;4039;-57
2023/04/05 01:19:03;;;;;;;;;;;;;;;;;;1038739;28;1882;-59
2023/04/05 01:19:34;;;;;;;;;;;;;;;;;;1039564;28;4083;-54
2023/04/05 01:20:10;;;;;;;;;;;;;;;;;;1038511;28;2792;-56
2023/04/05 01:20:44;;;;;;;;;;;;;;;;;;1038989;28;3817;-56
2023/04/05 01:21:28;;;;;;;;;;;;;;;;;;1035352;28;2723;-61
2023/04/05 01:22:12;;;;;;;;;;;;;;;;;;1037042;28;3933;-58
2023/04/05 01:23:05;;;;;;;;;;;;;;;;;;1037291;28;3931;-54
2023/04/05 01:23:38;;;;;;;;;;;;;;;;;;1039737;28;3807;-58
2023/04/05 01:24:21;;;;;;;;;;;;;;;;;;1038351;28;1833;-55
2023/04/05 01:25:10;;;;;;;;;;;;;;;;;;1036296;28;3889;-54
2023/04/05 01:25:47;;;;;;;;;;;;;;;;;;1040292;28;3946;-58
2023/04/05 01:26:32;;;;;;;;;;;;;;;;;;1037511;28;2429;-58
2023/04/05 01:27:08;;;;;;;;;;;;;;;;;;1038964;28;3838;-56
2023/04/05 01:27:47;;;;;;;;;;;;;;;;;;1039336;28;4041;-57
2023/04/05 01:28:18;;;;;;;;;;;;;;;;;;1039576;28;1719;-57
2023/04/05 01:28:51;;;;;;;;;;;;;;;;;;1036447;28;4050;-57
2023/04/05 01:29:21;;;;;;;;;;;;;;;;;;1037106;28;3901;-59
2023/04/05 01:30:09;;;;;;;;;;;;;;;;;;1036801;28;2808;-55
2023/04/05 01:30:47;;;;;;;;;;;;;;;;;;1037395;28;4212;-57
2023/04/05 01:31:17;;;;;;;;;;;;;;;;;;1037927;28;2704;-58
2023/04/05 01:31:57;;;;;;;;;;;;;;;;;;1039008;28;4978;-60
2023/04/05 01:32:30;;;;;;;;;;;;;;;;;;1038769;28;4199;-51
2023/04/05 01:33:15;;;;;;;;;;;;;;;;;;1038409;28;2179;-56
2023/04/05 01:33:50;;;;;;;;;;;;;;;;;;1037051;28;3961;-55
2023/04/05 01:34:23;;;;;;;;;;;;;;;;;;1037799;28;4885;-58
2023/04/05 01:34:59;;;;;;;;;;;;;;;;;;1035992;28;2908;-58
2023/04/05 01:35:43;;;;;;;;;;;;;;;;;;1035916;28;4041;-60
2023/04/05 01:36:16;;;;;;;;;;;;;;;;;;1037175;28;3171;-57
2023/04/05 01:36:53;;;;;;;;;;;;;;;;;;1038241;28;3944;-58
2023/04/05 01:37:25;;;;;;;;;;;;;;;;;;1036894;28;3874;-57
2023/04/05 01:38:01;;;;;;;;;;;;;;;;;;1038281;28;2418;-55
2023/04/05 01:38:32;;;;;;;;;;;;;;;;;;1038036;28;3907;-57
2023/04/05 01:39:04;;;;;;;;;;;;;;;;;;1038638;28;1863;-57
2023/04/05 01:39:35;;;;;;;;;;;;;;;;;;1038377;28;3827;-60
2023/04/05 01:40:06;;;;;;;;;;;;;;;;;;1035896;28;2770;-57
2023/04/05 01:40:37;;;;;;;;;;;;;;;;;;1039177;28;4501;-57
2023/04/05 01:41:08;;;;;;;;;;;;;;;;;;1039721;28;1709;-58
2023/04/05 01:41:39;;;;;;;;;;;;;;;;;;1034617;28;4058;-57
2023/04/05 01:42:09;;;;;;;;;;;;;;;;;;1035731;28;2887;-58
2023/04/05 01:42:42;;;;;;;;;;;;;;;;;;1038653;28;4418;-53
2023/04/05 01:43:15;;;;;;;;;;;;;;;;;;1039933;28;1594;-56
2023/04/05 01:43:46;;;;;;;;;;;;;;;;;;1038333;28;4126;-57
2023/04/05 01:44:16;;;;;;;;;;;;;;;;;;1039661;28;1396;-59
2023/04/05 01:44:46;;;;;;;;;;;;;;;;;;1033108;28;3731;-55
2023/04/05 01:45:16;;;;;;;;;;;;;;;;;;1032903;28;2840;-55
2023/04/05 01:45:47;;;;;;;;;;;;;;;;;;1033594;28;3866;-58
2023/04/05 01:46:17;;;;;;;;;;;;;;;;;;1037719;28;1899;-56
2023/04/05 01:46:47;;;;;;;;;;;;;;;;;;1035878;28;4138;-59
2023/04/05 01:47:19;;;;;;;;;;;;;;;;;;1038569;28;1852;-55
2023/04/05 01:47:49;;;;;;;;;;;;;;;;;;1038138;28;3893;-56
2023/04/05 01:48:19;;;;;;;;;;;;;;;;;;1039436;28;3927;-58
2023/04/05 01:48:50;;;;;;;;;;;;;;;;;;1034226;28;1945;-59
2023/04/05 01:49:20;;;;;;;;;;;;;;;;;;1035170;28;3871;-57
2023/04/05 01:49:51;;;;;;;;;;;;;;;;;;1034888;28;1807;-56
2023/04/05 01:50:21;;;;;;;;;;;;;;;;;;1033005;28;3896;-60
2023/04/05 01:50:51;;;;;;;;;;;;;;;;;;1036621;28;1889;-56
2023/04/05 01:51:21;;;;;;;;;;;;;;;;;;1032927;28;3973;-54
2023/04/05 01:51:52;;;;;;;;;;;;;;;;;;1033714;28;2900;-56
2023/04/05 01:52:22;;;;;;;;;;;;;;;;;;1034173;28;3840;-57
2023/04/05 01:52:52;;;;;;;;;;;;;;;;;;1035857;28;1645;-59
2023/04/05 01:53:22;;;;;;;;;;;;;;;;;;1034885;28;3868;-56
2023/04/05 01:53:53;;;;;;;;;;;;;;;;;;1033474;28;2238;-55
2023/04/05 01:54:23;;;;;;;;;;;;;;;;;;1035222;28;4074;-57
2023/04/05 01:54:53;;;;;;;;;;;;;;;;;;1037907;28;2705;-54
2023/04/05 01:55:24;;;;;;;;;;;;;;;;;;1037433;28;3980;-54
2023/04/05 01:55:58;;;;;;;;;;;;;;;;;;1036936;28;2232;-59
2023/04/05 01:56:28;;;;;;;;;;;;;;;;;;1038332;28;4062;-58
2023/04/05 01:56:59;;;;;;;;;;;;;;;;;;1039770;28;1595;-58
2023/04/05 01:57:29;;;;;;;;;;;;;;;;;;1038916;28;4647;-58
2023/04/05 01:57:59;;;;;;;;;;;;;;;;;;1035793;28;2644;-56
2023/04/05 01:58:30;;;;;;;;;;;;;;;;;;1039490;28;3932;-55
2023/04/05 01:59:00;;;;;;;;;;;;;;;;;;1038183;28;1857;-57
2023/04/05 01:59:30;;;;;;;;;;;;;;;;;;1039498;28;4025;-58
2023/04/05 02:00:01;;;;;;;;;;;;;;;;;;1036810;28;2447;-56
2023/04/05 02:00:31;;;;;;;;;;;;;;;;;;1036338;28;3802;-56
2023/04/05 02:01:01;;;;;;;;;;;;;;;;;;1038825;28;2015;-58
2023/04/05 02:01:32;;;;;;;;;;;;;;;;;;1038398;28;4174;-58
2023/04/05 02:02:02;;;;;;;;;;;;;;;;;;1039503;28;1151;-57
2023/04/05 02:02:33;;;;;;;;;;;;;;;;;;1038006;28;4148;-55
2023/04/05 02:03:03;;;;;;;;;;;;;;;;;;1033364;28;2206;-54
2023/04/05 02:03:33;;;;;;;;;;;;;;;;;;1032377;28;3967;-60
2023/04/05 02:04:04;;;;;;;;;;;;;;;;;;1033263;28;2818;-58
2023/04/05 02:04:34;;;;;;;;;;;;;;;;;;1032989;28;4188;-58
2023/04/05 02:05:05;;;;;;;;;;;;;;;;;;1039321;28;1677;-56
2023/04/05 02:05:35;;;;;;;;;;;;;;;;;;1037217;28;4059;-57
2023/04/05 02:06:05;;;;;;;;;;;;;;;;;;1038327;28;1628;-56
2023/04/05 02:06:35;;;;;;;;;;;;;;;;;;1038715;28;4146;-53
2023/04/05 02:07:06;;;;;;;;;;;;;;;;;;1039761;28;1711;-57
2023/04/05 02:07:36;;;;;;;;;;;;;;;;;;1037846;28;3888;-58
2023/04/05 02:08:06;;;;;;;;;;;;;;;;;;1037941;28;2184;-59
2023/04/05 02:08:37;;;;;;;;;;;;;;;;;;1038075;28;4141;-60
2023/04/05 02:09:07;;;;;;;;;;;;;;;;;;1038205;28;2444;-52
2023/04/05 02:09:37;;;;;;;;;;;;;;;;;;1038441;28;4004;-57
2023/04/05 02:10:08;;;;;;;;;;;;;;;;;;1037595;28;2760;-58
2023/04/05 02:10:39;;;;;;;;;;;;;;;;;;1036573;28;3825;-57
2023/04/05 02:11:10;;;;;;;;;;;;;;;;;;1038677;28;1808;-55
2023/04/05 02:11:40;;;;;;;;;;;;;;;;;;1036978;28;3997;-59
2023/04/05 02:12:10;;;;;;;;;;;;;;;;;;1038083;28;2734;-56
2023/04/05 02:12:40;;;;;;;;;;;;;;;;;;1039239;28;3871;-59
2023/04/05 02:13:12;;;;;;;;;;;;;;;;;;1038329;28;1987;-54
2023/04/05 02:13:42;;;;;;;;;;;;;;;;;;1039131;28;4005;-59
2023/04/05 02:14:13;;;;;;;;;;;;;;;;;;1037854;28;1831;-57
2023/04/05 02:14:43;;;;;;;;;;;;;;;;;;1037904;28;3989;-58
2023/04/05 02:15:13;;;;;;;;;;;;;;;;;;1037922;28;2251;-61
2023/04/05 02:15:49;;;;;;;;;;;;;;;;;;1037971;28;3802;-59
2023/04/05 02:16:20;;;;;;;;;;;;;;;;;;1037801;28;4049;-56
2023/04/05 02:16:52;;;;;;;;;;;;;;;;;;1038992;28;1962;-57
2023/04/05 02:17:23;;;;;;;;;;;;;;;;;;1036419;28;4092;-58
2023/04/05 02:17:53;;;;;;;;;;;;;;;;;;1039581;28;1627;-55
2023/04/05 02:18:28;;;;;;;;;;;;;;;;;;1038981;28;3949;-57
2023/04/05 02:18:59;;;;;;;;;;;;;;;;;;1038008;28;2327;-56
2023/04/05 02:19:36;;;;;;;;;;;;;;;;;;1038292;28;4061;-56
2023/04/05 02:20:06;;;;;;;;;;;;;;;;;;1038169;28;2518;-57
2023/04/05 02:20:37;;;;;;;;;;;;;;;;;;1038878;28;3870;-54
2023/04/05 02:21:09;;;;;;;;;;;;;;;;;;1037478;28;1953;-56
2023/04/05 02:21:39;;;;;;;;;;;;;;;;;;1038476;28;3987;-59
2023/04/05 02:22:10;;;;;;;;;;;;;;;;;;1036666;28;1840;-56
2023/04/05 02:22:40;;;;;;;;;;;;;;;;;;1039591;28;4100;-61
2023/04/05 02:23:11;;;;;;;;;;;;;;;;;;1039025;28;1771;-54
2023/04/05 02:23:41;;;;;;;;;;;;;;;;;;1037804;28;4151;-60
2023/04/05 02:24:11;;;;;;;;;;;;;;;;;;1039002;28;2082;-55
2023/04/05 02:24:41;;;;;;;;;;;;;;;;;;1039412;28;4086;-56
2023/04/05 02:25:12;;;;;;;;;;;;;;;;;;1039053;28;1645;-57
2023/04/05 02:25:42;;;;;;;;;;;;;;;;;;1038903;28;3977;-57
2023/04/05 02:26:12;;;;;;;;;;;;;;;;;;1038224;28;1913;-58
2023/04/05 02:26:43;;;;;;;;;;;;;;;;;;1039382;28;3984;-60
2023/04/05 02:27:13;;;;;;;;;;;;;;;;;;1039263;28;2077;-58
2023/04/05 02:27:43;;;;;;;;;;;;;;;;;;1039235;28;3959;-57
2023/04/05 02:28:13;;;;;;;;;;;;;;;;;;1039077;28;1806;-57
2023/04/05 02:28:44;;;;;;;;;;;;;;;;;;1037733;28;4006;-57
2023/04/05 02:29:14;;;;;;;;;;;;;;;;;;1038451;28;2679;-58
2023/04/05 02:29:45;;;;;;;;;;;;;;;;;;1034173;28;3781;-55
2023/04/05 02:30:15;;;;;;;;;;;;;;;;;;1033279;28;2118;-61
2023/04/05 02:30:45;;;;;;;;;;;;;;;;;;1037365;28;3961;-57
2023/04/05 02:31:16;;;;;;;;;;;;;;;;;;1035986;28;2476;-57
2023/04/05 02:31:46;;;;;;;;;;;;;;;;;;1037457;28;4002;-57
2023/04/05 02:32:16;;;;;;;;;;;;;;;;;;1039782;28;2182;-55
2023/04/05 02:32:46;;;;;;;;;;;;;;;;;;1038728;28;4144;-58
2023/04/05 02:33:17;;;;;;;;;;;;;;;;;;1037009;28;1944;-56
2023/04/05 02:33:48;;;;;;;;;;;;;;;;;;1037258;28;3815;-60
2023/04/05 02:34:18;;;;;;;;;;;;;;;;;;1038147;28;2332;-56
2023/04/05 02:34:49;;;;;;;;;;;;;;;;;;1036277;28;3887;-58
2023/04/05 02:35:20;;;;;;;;;;;;;;;;;;1039638;28;4053;-54
2023/04/05 02:35:51;;;;;;;;;;;;;;;;;;1039634;28;1635;-56
2023/04/05 02:36:22;;;;;;;;;;;;;;;;;;1037659;28;4144;-60
2023/04/05 02:36:52;;;;;;;;;;;;;;;;;;1039260;28;1855;-53
2023/04/05 02:37:24;;;;;;;;;;;;;;;;;;1038221;28;4102;-56
2023/04/05 02:37:55;;;;;;;;;;;;;;;;;;1039614;28;2000;-55
2023/04/05 02:38:25;;;;;;;;;;;;;;;;;;1038173;28;4420;-58
2023/04/05 02:38:56;;;;;;;;;;;;;;;;;;1038908;28;1628;-51
2023/04/05 02:39:27;;;;;;;;;;;;;;;;;;1037226;28;4033;-60
2023/04/05 02:39:58;;;;;;;;;;;;;;;;;;1039437;28;1531;-58
2023/04/05 02:40:28;;;;;;;;;;;;;;;;;;1037403;28;4037;-57
2023/04/05 02:40:58;;;;;;;;;;;;;;;;;;1039493;28;1755;-58
2023/04/05 02:41:29;;;;;;;;;;;;;;;;;;1038799;28;4234;-56
2023/04/05 02:41:59;;;;;;;;;;;;;;;;;;1039776;28;1903;-56
2023/04/05 02:42:29;;;;;;;;;;;;;;;;;;1038993;28;4090;-56
2023/04/05 02:43:00;;;;;;;;;;;;;;;;;;1039303;28;1718;-58
2023/04/05 02:43:30;;;;;;;;;;;;;;;;;;1038984;28;4044;-56
2023/04/05 02:44:01;;;;;;;;;;;;;;;;;;1039471;28;1666;-58
2023/04/05 02:44:31;;;;;;;;;;;;;;;;;;1037357;28;4074;-56
2023/04/05 02:45:02;;;;;;;;;;;;;;;;;;1038986;28;2201;-56
2023/04/05 02:45:32;;;;;;;;;;;;;;;;;;1038117;28;3898;-58
2023/04/05 02:46:03;;;;;;;;;;;;;;;;;;1039007;28;2758;-56
2023/04/05 02:46:33;;;;;;;;;;;;;;;;;;1037469;28;4072;-59
2023/04/05 02:47:03;;;;;;;;;;;;;;;;;;1038286;28;2696;-55
2023/04/05 02:47:33;;;;;;;;;;;;;;;;;;1040252;28;3895;-59
2023/04/05 02:48:04;;;;;;;;;;;;;;;;;;1038606;28;2018;-56
2023/04/05 02:48:34;;;;;;;;;;;;;;;;;;1039046;28;3791;-58
2023/04/05 02:49:05;;;;;;;;;;;;;;;;;;1039066;28;1849;-57
2023/04/05 02:49:35;;;;;;;;;;;;;;;;;;1037118;28;4054;-55
2023/04/05 02:50:05;;;;;;;;;;;;;;;;;;1038624;28;2615;-56
2023/04/05 02:50:36;;;;;;;;;;;;;;;;;;1039200;28;4042;-58
2023/04/05 02:51:06;;;;;;;;;;;;;;;;;;1039480;28;1721;-56
2023/04/05 02:51:37;;;;;;;;;;;;;;;;;;1036694;28;3858;-58
2023/04/05 02:52:07;;;;;;;;;;;;;;;;;;1039631;28;1787;-55
2023/04/05 02:52:37;;;;;;;;;;;;;;;;;;1038276;28;4276;-59
2023/04/05 02:53:07;;;;;;;;;;;;;;;;;;1039953;28;1609;-59
2023/04/05 02:53:38;;;;;;;;;;;;;;;;;;1038669;28;4126;-58
2023/04/05 02:54:08;;;;;;;;;;;;;;;;;;1039103;28;1690;-53
2023/04/05 02:54:38;;;;;;;;;;;;;;;;;;1037418;28;4036;-54
2023/04/05 02:55:09;;;;;;;;;;;;;;;;;;1036955;28;2877;-57
2023/04/05 02:55:41;;;;;;;;;;;;;;;;;;1038216;28;3880;-54
2023/04/05 02:56:12;;;;;;;;;;;;;;;;;;1038708;28;1939;-56
2023/04/05 02:56:42;;;;;;;;;;;;;;;;;;1039425;28;3852;-59
2023/04/05 02:57:13;;;;;;;;;;;;;;;;;;1038576;28;2488;-60
2023/04/05 02:57:43;;;;;;;;;;;;;;;;;;1038695;28;3733;-55
2023/04/05 02:58:14;;;;;;;;;;;;;;;;;;1039482;28;2512;-58
2023/04/05 02:58:47;;;;;;;;;;;;;;;;;;1038739;28;3959;-57
2023/04/05 02:59:19;;;;;;;;;;;;;;;;;;1037242;28;2654;-54
2023/04/05 02:59:50;;;;;;;;;;;;;;;;;;1038390;28;3893;-56
2023/04/05 03:00:21;;;;;;;;;;;;;;;;;;1037478;28;4452;-59
2023/04/05 03:00:53;;;;;;;;;;;;;;;;;;1039405;28;2367;-56
2023/04/05 03:01:23;;;;;;;;;;;;;;;;;;1037924;28;4052;-60
2023/04/05 03:01:53;;;;;;;;;;;;;;;;;;1037971;28;2768;-57
2023/04/05 03:02:24;;;;;;;;;;;;;;;;;;1038498;28;4361;-60
2023/04/05 03:02:55;;;;;;;;;;;;;;;;;;1039565;28;1735;-55
2023/04/05 03:03:27;;;;;;;;;;;;;;;;;;1037380;28;3869;-58
2023/04/05 03:03:57;;;;;;;;;;;;;;;;;;1038667;28;2246;-57
2023/04/05 03:04:28;;;;;;;;;;;;;;;;;;1035294;28;3933;-54
2023/04/05 03:05:01;;;;;;;;;;;;;;;;;;1036291;28;2683;-55
2023/04/05 03:05:31;;;;;;;;;;;;;;;;;;1038126;28;4170;-54
2023/04/05 03:06:12;;;;;;;;;;;;;;;;;;1036692;28;2072;-57
2023/04/05 03:06:45;;;;;;;;;;;;;;;;;;1038099;28;3832;-54
2023/04/05 03:07:17;;;;;;;;;;;;;;;;;;1037358;28;1909;-59
2023/04/05 03:07:50;;;;;;;;;;;;;;;;;;1038811;28;3923;-55
2023/04/05 03:08:22;;;;;;;;;;;;;;;;;;1038997;28;3893;-59
2023/04/05 03:08:52;;;;;;;;;;;;;;;;;;1036247;28;2756;-58
2023/04/05 03:09:23;;;;;;;;;;;;;;;;;;1037836;28;4036;-54
2023/04/05 03:09:53;;;;;;;;;;;;;;;;;;1038116;28;1859;-57
2023/04/05 03:10:23;;;;;;;;;;;;;;;;;;1038497;28;3790;-58
2023/04/05 03:10:54;;;;;;;;;;;;;;;;;;1038321;28;2728;-57
2023/04/05 03:11:24;;;;;;;;;;;;;;;;;;1038514;28;3874;-58
2023/04/05 03:11:54;;;;;;;;;;;;;;;;;;1039779;28;1678;-56
2023/04/05 03:12:25;;;;;;;;;;;;;;;;;;1036475;28;4069;-59
2023/04/05 03:12:55;;;;;;;;;;;;;;;;;;1038102;28;2663;-59
2023/04/05 03:13:25;;;;;;;;;;;;;;;;;;1038344;28;4049;-60
2023/04/05 03:13:56;;;;;;;;;;;;;;;;;;1038370;28;2888;-57
2023/04/05 03:14:26;;;;;;;;;;;;;;;;;;1035543;28;4155;-61
2023/04/05 03:14:57;;;;;;;;;;;;;;;;;;1037568;28;2579;-60
2023/04/05 03:15:27;;;;;;;;;;;;;;;;;;1038810;28;4049;-59
2023/04/05 03:15:57;;;;;;;;;;;;;;;;;;1039407;28;1864;-59
2023/04/05 03:16:27;;;;;;;;;;;;;;;;;;1038272;28;4055;-58
2023/04/05 03:16:58;;;;;;;;;;;;;;;;;;1038099;28;2738;-59
2023/04/05 03:17:28;;;;;;;;;;;;;;;;;;1038429;28;3834;-58
2023/04/05 03:17:58;;;;;;;;;;;;;;;;;;1039035;28;2104;-55
2023/04/05 03:18:29;;;;;;;;;;;;;;;;;;1039239;28;3870;-58
2023/04/05 03:18:59;;;;;;;;;;;;;;;;;;1036525;28;1864;-57
2023/04/05 03:19:29;;;;;;;;;;;;;;;;;;1037098;28;4040;-59
2023/04/05 03:19:59;;;;;;;;;;;;;;;;;;1039204;28;1653;-55
2023/04/05 03:20:30;;;;;;;;;;;;;;;;;;1037404;28;3967;-57
2023/04/05 03:21:00;;;;;;;;;;;;;;;;;;1037695;28;2247;-58
2023/04/05 03:21:31;;;;;;;;;;;;;;;;;;1037271;28;4028;-56
2023/04/05 03:22:01;;;;;;;;;;;;;;;;;;1037951;28;1971;-57
2023/04/05 03:22:32;;;;;;;;;;;;;;;;;;1038500;28;4028;-57
2023/04/05 03:23:03;;;;;;;;;;;;;;;;;;1038804;28;1735;-55
2023/04/05 03:23:33;;;;;;;;;;;;;;;;;;1038903;28;3933;-52
2023/04/05 03:24:04;;;;;;;;;;;;;;;;;;1038576;28;2647;-57
2023/04/05 03:24:34;;;;;;;;;;;;;;;;;;1034808;28;4053;-54
2023/04/05 03:25:05;;;;;;;;;;;;;;;;;;1037476;28;1641;-58
2023/04/05 03:25:40;;;;;;;;;;;;;;;;;;1038710;28;3885;-56
2023/04/05 03:26:10;;;;;;;;;;;;;;;;;;1039206;28;1680;-58
2023/04/05 03:26:44;;;;;;;;;;;;;;;;;;1035444;28;4066;-59
2023/04/05 03:27:14;;;;;;;;;;;;;;;;;;1035655;28;2304;-59
2023/04/05 03:27:45;;;;;;;;;;;;;;;;;;1038750;28;3727;-56
2023/04/05 03:28:17;;;;;;;;;;;;;;;;;;1037322;28;1810;-58
2023/04/05 03:28:47;;;;;;;;;;;;;;;;;;1036601;28;3870;-53
2023/04/05 03:29:18;;;;;;;;;;;;;;;;;;1038422;28;2310;-57
2023/04/05 03:29:48;;;;;;;;;;;;;;;;;;1037387;28;4335;-59
2023/04/05 03:30:19;;;;;;;;;;;;;;;;;;1037925;28;2225;-54
2023/04/05 03:30:49;;;;;;;;;;;;;;;;;;1038909;28;3850;-55
2023/04/05 03:31:20;;;;;;;;;;;;;;;;;;1038708;28;4054;-53
2023/04/05 03:31:50;;;;;;;;;;;;;;;;;;1037748;28;1834;-57
2023/04/05 03:32:20;;;;;;;;;;;;;;;;;;1038069;28;4040;-59
2023/04/05 03:32:51;;;;;;;;;;;;;;;;;;1037116;28;1849;-57
2023/04/05 03:33:21;;;;;;;;;;;;;;;;;;1036933;28;4040;-58
2023/04/05 03:33:51;;;;;;;;;;;;;;;;;;1038394;28;1781;-54
2023/04/05 03:34:27;;;;;;;;;;;;;;;;;;1037860;28;3893;-54
2023/04/05 03:34:58;;;;;;;;;;;;;;;;;;1039506;28;1618;-58
2023/04/05 03:35:28;;;;;;;;;;;;;;;;;;1037464;28;3951;-59
2023/04/05 03:35:58;;;;;;;;;;;;;;;;;;1039363;28;1908;-61
2023/04/05 03:36:29;;;;;;;;;;;;;;;;;;1037860;28;4124;-55
2023/04/05 03:37:00;;;;;;;;;;;;;;;;;;1036768;28;2654;-60
2023/04/05 03:37:30;;;;;;;;;;;;;;;;;;1038442;28;3975;-60
2023/04/05 03:38:00;;;;;;;;;;;;;;;;;;1038980;28;1675;-60
2023/04/05 03:38:33;;;;;;;;;;;;;;;;;;1038991;28;3886;-54
2023/04/05 03:39:03;;;;;;;;;;;;;;;;;;1039387;28;1681;-59
2023/04/05 03:39:35;;;;;;;;;;;;;;;;;;1038855;28;4202;-57
2023/04/05 03:40:07;;;;;;;;;;;;;;;;;;1038904;28;1871;-58